Time;durP1;ratioP1;P1;durP2;ratioP2;P2;SDS_P1;SDS_P2;PMS_P1;PMS_P2;Temp;Humidity;BMP_temperature;BMP_pressure;BME280_temperature;BME280_humidity;BME280_pressure;Samples;Min_cycle;Max_cycle;Signal;HPM_P1;HPM_P2
2021/05/07 00:01:29;;;;;;;1.60;0.70;;;22.80;35.80;;;;;;5033944;28;20451;-72
2021/05/07 00:03:55;;;;;;;1.80;0.68;;;22.80;35.80;;;;;;5016132;28;20398;-71
2021/05/07 00:06:20;;;;;;;1.00;0.60;;;22.80;35.80;;;;;;5032713;28;20414;-70
2021/05/07 00:08:46;;;;;;;1.90;0.63;;;22.80;35.80;;;;;;5033896;28;20878;-72
2021/05/07 00:11:14;;;;;;;0.90;0.60;;;22.70;35.90;;;;;;5033955;28;20394;-72
2021/05/07 00:13:40;;;;;;;1.30;0.70;;;22.70;35.90;;;;;;5033440;28;20411;-72
2021/05/07 00:16:06;;;;;;;1.20;0.60;;;22.70;35.90;;;;;;5033353;28;20504;-72
2021/05/07 00:18:33;;;;;;;1.25;0.60;;;22.70;36.00;;;;;;5033840;28;20418;-72
2021/05/07 00:20:59;;;;;;;1.13;0.50;;;22.70;35.90;;;;;;5033736;28;20391;-72
2021/05/07 00:23:24;;;;;;;1.17;0.73;;;22.70;35.90;;;;;;5033276;28;20387;-72
2021/05/07 00:25:52;;;;;;;1.00;0.52;;;22.80;35.80;;;;;;5033649;28;20452;-72
2021/05/07 00:28:19;;;;;;;0.98;0.60;;;22.70;35.80;;;;;;5033237;28;20403;-72
2021/05/07 00:30:45;;;;;;;1.27;0.60;;;22.70;35.80;;;;;;5033450;28;20970;-72
2021/05/07 00:33:11;;;;;;;0.70;0.50;;;22.70;35.80;;;;;;5033264;28;20395;-72
2021/05/07 00:35:37;;;;;;;0.98;0.60;;;22.70;35.80;;;;;;5033373;28;20792;-72
2021/05/07 00:38:04;;;;;;;1.10;0.70;;;22.70;35.80;;;;;;5032505;28;20387;-72
2021/05/07 00:40:30;;;;;;;1.60;0.60;;;22.70;35.80;;;;;;5032624;28;20390;-72
2021/05/07 00:42:56;;;;;;;0.80;0.40;;;22.70;35.80;;;;;;5033207;28;20474;-72
2021/05/07 00:45:23;;;;;;;1.23;0.52;;;22.70;35.90;;;;;;5033097;28;20470;-71
2021/05/07 00:47:59;;;;;;;0.90;0.60;;;22.70;35.80;;;;;;5033379;28;20441;-72
2021/05/07 00:50:27;;;;;;;1.35;0.50;;;22.70;35.80;;;;;;5032797;28;20379;-72
2021/05/07 00:52:55;;;;;;;1.00;0.57;;;22.70;35.80;;;;;;5032892;28;20394;-71
2021/05/07 00:55:21;;;;;;;1.10;0.50;;;22.70;35.80;;;;;;5032980;28;20419;-70
2021/05/07 00:57:48;;;;;;;1.30;0.50;;;22.70;35.80;;;;;;5032970;28;20396;-71
2021/05/07 01:00:14;;;;;;;1.20;0.60;;;22.70;35.70;;;;;;5032319;28;20379;-72
2021/05/07 01:02:40;;;;;;;1.20;0.60;;;22.70;35.80;;;;;;5032833;28;20433;-71
2021/05/07 01:05:07;;;;;;;1.10;0.50;;;22.70;35.80;;;;;;5032726;28;20879;-71
2021/05/07 01:07:34;;;;;;;1.17;0.60;;;22.70;35.80;;;;;;5032625;28;20445;-72
2021/05/07 01:10:02;;;;;;;1.08;0.60;;;22.70;35.80;;;;;;5032559;28;20389;-72
2021/05/07 01:12:28;;;;;;;1.27;0.57;;;22.70;36.30;;;;;;5032445;28;20462;-70
2021/05/07 01:15:12;;;;;;;1.02;0.63;;;22.70;35.80;;;;;;5032542;28;20450;-70
2021/05/07 01:17:49;;;;;;;1.13;0.60;;;22.70;35.80;;;;;;5032348;28;20441;-71
2021/05/07 01:20:21;;;;;;;0.85;0.45;;;22.60;35.70;;;;;;5032066;28;20914;-72
2021/05/07 01:22:50;;;;;;;1.20;0.60;;;22.60;35.80;;;;;;5032171;28;20484;-71
2021/05/07 01:25:18;;;;;;;1.00;0.52;;;22.60;35.80;;;;;;5032491;28;20875;-73
2021/05/07 01:27:47;;;;;;;1.08;0.60;;;22.60;35.80;;;;;;5032373;28;20445;-72
2021/05/07 01:30:18;;;;;;;1.27;0.60;;;22.60;35.80;;;;;;5031901;28;20759;-72
2021/05/07 01:32:45;;;;;;;0.90;0.57;;;22.70;35.80;;;;;;5032283;28;20406;-72
2021/05/07 01:35:32;;;;;;;0.82;0.43;;;22.70;35.80;;;;;;5032180;28;20477;-71
2021/05/07 01:38:00;;;;;;;1.45;0.68;;;22.70;35.80;;;;;;5032093;28;20874;-72
2021/05/07 01:40:31;;;;;;;1.02;0.47;;;22.60;35.80;;;;;;5031953;28;20410;-71
2021/05/07 01:42:57;;;;;;;1.17;0.60;;;22.60;35.80;;;;;;5032189;28;20387;-71
2021/05/07 01:45:29;;;;;;;1.08;0.57;;;22.60;35.90;;;;;;5032109;28;20477;-72
2021/05/07 01:47:56;;;;;;;0.93;0.50;;;22.60;35.90;;;;;;5032099;28;20379;-71
2021/05/07 01:50:24;;;;;;;1.17;0.60;;;22.60;35.80;;;;;;5013798;28;20423;-70
2021/05/07 01:52:50;;;;;;;1.17;0.70;;;22.60;35.80;;;;;;5031993;28;20422;-71
2021/05/07 01:55:19;;;;;;;1.30;0.60;;;22.60;35.80;;;;;;5031916;28;20411;-71
2021/05/07 01:57:46;;;;;;;1.20;0.60;;;22.60;35.80;;;;;;5031894;28;20735;-72
2021/05/07 02:00:15;;;;;;;0.83;0.50;;;22.60;35.70;;;;;;5031375;28;20481;-72
2021/05/07 02:02:41;;;;;;;1.08;0.52;;;22.60;35.70;;;;;;5031614;28;20413;-72
2021/05/07 02:05:09;;;;;;;1.10;0.60;;;22.60;35.60;;;;;;5031911;28;20383;-72
2021/05/07 02:07:35;;;;;;;1.10;0.60;;;22.60;35.70;;;;;;5031608;28;20383;-69
2021/05/07 02:10:01;;;;;;;1.00;0.50;;;22.60;35.70;;;;;;5030965;28;20441;-65
2021/05/07 02:12:27;;;;;;;0.80;0.40;;;22.60;35.70;;;;;;5030904;28;20407;-71
2021/05/07 02:14:53;;;;;;;0.80;0.57;;;22.60;35.70;;;;;;5031460;28;20426;-72
2021/05/07 02:17:19;;;;;;;0.65;0.40;;;22.60;35.70;;;;;;5031678;28;20397;-72
2021/05/07 02:19:44;;;;;;;0.70;0.50;;;22.60;35.70;;;;;;5031510;28;20399;-72
2021/05/07 02:22:10;;;;;;;0.77;0.50;;;22.60;35.70;;;;;;5031095;28;20441;-72
2021/05/07 02:24:36;;;;;;;0.90;0.50;;;22.60;35.70;;;;;;5031151;28;20402;-71
2021/05/07 02:27:03;;;;;;;0.80;0.50;;;22.60;35.60;;;;;;5031632;28;20387;-71
2021/05/07 02:29:29;;;;;;;0.98;0.50;;;22.60;35.60;;;;;;5031237;28;20475;-70
2021/05/07 02:31:55;;;;;;;0.88;0.45;;;22.60;35.60;;;;;;5031773;28;20818;-71
2021/05/07 02:34:20;;;;;;;0.90;0.50;;;22.60;35.60;;;;;;5030994;28;20982;-69
2021/05/07 02:36:46;;;;;;;1.20;0.45;;;22.60;35.60;;;;;;5031376;28;20413;-70
2021/05/07 02:39:15;;;;;;;1.00;0.40;;;22.60;35.70;;;;;;5031367;28;20747;-72
2021/05/07 02:41:42;;;;;;;0.97;0.47;;;22.60;35.60;;;;;;5031325;28;20422;-72
2021/05/07 02:44:07;;;;;;;0.70;0.33;;;22.60;35.60;;;;;;5031011;28;20429;-62
2021/05/07 02:46:34;;;;;;;0.88;0.50;;;22.50;35.50;;;;;;5031271;28;20423;-72
2021/05/07 02:49:01;;;;;;;0.70;0.40;;;22.50;35.60;;;;;;5031291;28;20395;-72
2021/05/07 02:51:27;;;;;;;0.70;0.40;;;22.50;35.50;;;;;;5031351;28;20387;-71
2021/05/07 02:53:53;;;;;;;0.82;0.40;;;22.50;35.50;;;;;;5031290;28;20403;-71
2021/05/07 02:56:19;;;;;;;0.63;0.50;;;22.50;35.50;;;;;;5030858;28;20402;-72
2021/05/07 02:58:45;;;;;;;2.00;0.50;;;22.50;35.50;;;;;;5031217;28;20477;-72
2021/05/07 03:01:11;;;;;;;0.70;0.40;;;22.50;35.50;;;;;;5031180;28;20405;-71
2021/05/07 03:03:36;;;;;;;0.90;0.40;;;22.50;35.50;;;;;;5031209;28;20387;-72
2021/05/07 03:06:02;;;;;;;0.75;0.30;;;22.50;35.50;;;;;;5013428;28;20398;-72
2021/05/07 03:08:28;;;;;;;0.50;0.35;;;22.50;35.50;;;;;;5030527;28;20957;-73
2021/05/07 03:10:54;;;;;;;0.70;0.30;;;22.50;35.70;;;;;;5031197;28;20427;-63
2021/05/07 03:13:20;;;;;;;0.50;0.30;;;22.50;35.80;;;;;;5030836;28;20419;-70
2021/05/07 03:15:45;;;;;;;1.27;0.47;;;22.50;36.10;;;;;;5031180;28;20397;-72
2021/05/07 03:18:22;;;;;;;0.70;0.40;;;22.50;36.00;;;;;;5030617;28;20738;-72
2021/05/07 03:20:49;;;;;;;1.27;0.50;;;22.50;35.90;;;;;;5031008;28;20403;-72
2021/05/07 03:23:15;;;;;;;0.82;0.50;;;22.50;36.00;;;;;;5032007;28;20402;-72
2021/05/07 03:25:41;;;;;;;1.95;0.50;;;22.50;36.50;;;;;;5030533;28;20387;-72
2021/05/07 03:28:07;;;;;;;0.93;0.40;;;22.60;36.70;;;;;;5030576;28;20448;-73
2021/05/07 03:30:34;;;;;;;1.95;0.40;;;22.60;36.90;;;;;;5030733;28;20392;-73
2021/05/07 03:33:00;;;;;;;1.20;0.50;;;22.60;37.00;;;;;;5031019;28;20743;-73
2021/05/07 03:35:26;;;;;;;1.50;0.30;;;22.60;36.30;;;;;;5030586;28;20586;-72
2021/05/07 03:37:52;;;;;;;2.10;0.40;;;22.60;37.10;;;;;;5031863;28;20493;-69
2021/05/07 03:40:18;;;;;;;1.38;0.40;;;22.60;37.40;;;;;;5030590;28;20426;-73
2021/05/07 03:42:46;;;;;;;0.95;0.30;;;22.60;37.10;;;;;;5032868;28;20434;-73
2021/05/07 03:45:14;;;;;;;2.45;0.40;;;22.70;37.10;;;;;;5034165;28;20399;-73
2021/05/07 03:47:40;;;;;;;1.33;0.50;;;22.70;37.20;;;;;;5034116;28;20379;-73
2021/05/07 03:50:07;;;;;;;0.95;0.32;;;22.70;38.20;;;;;;5034004;28;20387;-64
2021/05/07 03:52:33;;;;;;;2.25;0.40;;;22.70;38.20;;;;;;5033845;28;20383;-74
2021/05/07 03:54:58;;;;;;;1.60;0.33;;;22.80;38.30;;;;;;5033528;28;20770;-72
2021/05/07 03:57:25;;;;;;;2.25;0.40;;;22.70;38.00;;;;;;5033836;28;20390;-73
2021/05/07 03:59:51;;;;;;;1.10;0.30;;;22.70;37.60;;;;;;5033595;28;20418;-74
2021/05/07 04:02:17;;;;;;;1.73;0.40;;;22.70;37.20;;;;;;5033117;28;20391;-73
2021/05/07 04:04:44;;;;;;;1.15;0.30;;;22.70;37.00;;;;;;5033471;28;20409;-72
2021/05/07 04:07:11;;;;;;;2.83;0.38;;;22.70;37.60;;;;;;5034744;28;20859;-73
2021/05/07 04:09:41;;;;;;;1.77;0.40;;;22.70;37.60;;;;;;5033834;28;20879;-72
2021/05/07 04:14:41;;;;;;;2.40;0.50;;;22.80;37.50;;;;;;5033408;28;20488;-74
2021/05/07 04:17:07;;;;;;;2.15;0.50;;;22.70;36.90;;;;;;5033151;28;20879;-74
2021/05/07 04:19:32;;;;;;;1.93;0.57;;;22.70;37.00;;;;;;5033199;28;20438;-73
2021/05/07 04:21:58;;;;;;;1.20;0.50;;;22.70;36.80;;;;;;5033045;28;20893;-72
2021/05/07 04:24:23;;;;;;;2.20;0.40;;;22.70;37.20;;;;;;5032702;28;20470;-73
2021/05/07 04:26:49;;;;;;;1.83;0.30;;;22.70;36.90;;;;;;5033163;28;20383;-73
2021/05/07 04:29:15;;;;;;;1.83;0.40;;;22.70;37.00;;;;;;5033234;28;20763;-74
2021/05/07 04:31:40;;;;;;;2.40;0.63;;;22.70;36.40;;;;;;5034105;28;20393;-73
2021/05/07 04:34:06;;;;;;;2.70;0.33;;;22.70;36.10;;;;;;5041165;28;20518;-73
2021/05/07 04:36:33;;;;;;;1.42;0.30;;;22.60;36.00;;;;;;5042690;28;20457;-73
2021/05/07 04:38:59;;;;;;;1.20;0.30;;;22.60;35.90;;;;;;5037239;28;20444;-73
2021/05/07 04:41:25;;;;;;;1.42;0.38;;;22.60;35.70;;;;;;5036467;28;20387;-73
2021/05/07 04:43:51;;;;;;;1.20;0.52;;;22.60;36.20;;;;;;5033433;28;20395;-71
2021/05/07 04:46:17;;;;;;;1.35;0.30;;;22.60;35.60;;;;;;5015057;28;20414;-71
2021/05/07 04:48:43;;;;;;;1.80;0.45;;;22.60;36.00;;;;;;5033139;28;20391;-71
2021/05/07 04:51:09;;;;;;;2.00;0.40;;;22.60;35.70;;;;;;5015312;28;20401;-68
2021/05/07 04:53:34;;;;;;;2.30;0.40;;;22.60;36.00;;;;;;5032375;28;20399;-64
2021/05/07 04:56:00;;;;;;;1.97;0.47;;;22.50;36.10;;;;;;5032475;28;20394;-71
2021/05/07 04:58:26;;;;;;;1.00;0.30;;;22.50;36.20;;;;;;5032312;28;20399;-71
2021/05/07 05:00:51;;;;;;;2.15;0.50;;;22.60;35.90;;;;;;5032812;28;20402;-71
2021/05/07 05:03:17;;;;;;;4.30;0.47;;;22.50;36.10;;;;;;5021809;28;20482;-72
2021/05/07 05:05:43;;;;;;;3.88;0.60;;;22.60;36.00;;;;;;5014456;28;20490;-71
2021/05/07 05:08:08;;;;;;;3.27;0.63;;;22.50;35.80;;;;;;5016426;28;20485;-73
2021/05/07 05:10:34;;;;;;;2.45;0.60;;;22.50;35.90;;;;;;5030262;28;20728;-73
2021/05/07 05:13:00;;;;;;;2.30;0.40;;;22.40;36.00;;;;;;5034204;28;20407;-73
2021/05/07 05:15:26;;;;;;;3.00;0.50;;;22.40;36.20;;;;;;5014729;28;20472;-73
2021/05/07 05:17:51;;;;;;;3.80;0.50;;;22.40;36.00;;;;;;5032576;28;20391;-73
2021/05/07 05:20:17;;;;;;;1.97;0.53;;;22.50;36.10;;;;;;5014275;28;20739;-69
2021/05/07 05:22:43;;;;;;;3.15;0.50;;;22.40;35.80;;;;;;5032557;28;20721;-73
2021/05/07 05:25:09;;;;;;;2.83;0.45;;;22.50;36.20;;;;;;5032393;28;20394;-72
2021/05/07 05:27:36;;;;;;;1.20;0.50;;;22.40;36.10;;;;;;5032298;28;20402;-73
2021/05/07 05:30:04;;;;;;;2.42;0.50;;;22.50;36.00;;;;;;5032329;28;20400;-73
2021/05/07 05:32:30;;;;;;;2.20;0.50;;;22.50;36.20;;;;;;5031800;28;20394;-73
2021/05/07 05:34:55;;;;;;;4.47;0.60;;;22.50;36.00;;;;;;5032131;28;20419;-73
2021/05/07 05:37:21;;;;;;;1.90;0.40;;;22.50;36.00;;;;;;5032187;28;20529;-72
2021/05/07 05:39:47;;;;;;;3.58;0.75;;;22.50;36.00;;;;;;5032195;28;20406;-72
2021/05/07 05:42:13;;;;;;;1.92;0.57;;;22.60;36.00;;;;;;5032138;28;20391;-62
2021/05/07 05:44:38;;;;;;;2.40;0.40;;;22.50;36.00;;;;;;5031815;28;20436;-72
2021/05/07 05:47:04;;;;;;;1.50;0.45;;;22.50;35.90;;;;;;5032067;28;20811;-72
2021/05/07 05:49:30;;;;;;;2.50;0.60;;;22.50;35.90;;;;;;5031997;28;20403;-73
2021/05/07 05:51:55;;;;;;;2.38;0.50;;;22.60;36.00;;;;;;5031943;28;20379;-73
2021/05/07 05:54:22;;;;;;;1.40;0.50;;;22.60;35.90;;;;;;5031298;28;20427;-71
2021/05/07 05:56:47;;;;;;;1.88;0.50;;;22.50;35.80;;;;;;5031876;28;20466;-73
2021/05/07 05:59:13;;;;;;;1.47;0.40;;;22.60;35.90;;;;;;5031909;28;20560;-73
2021/05/07 06:01:39;;;;;;;1.65;0.50;;;22.60;35.90;;;;;;5031773;28;20397;-72
2021/05/07 06:04:05;;;;;;;1.10;0.40;;;22.60;35.90;;;;;;5031075;28;20391;-72
2021/05/07 06:06:30;;;;;;;1.33;0.55;;;22.60;35.80;;;;;;5031239;28;20399;-73
2021/05/07 06:08:56;;;;;;;2.15;0.50;;;22.60;35.80;;;;;;5031799;28;20874;-72
2021/05/07 06:11:22;;;;;;;1.93;0.50;;;22.60;35.80;;;;;;5031663;28;20394;-72
2021/05/07 06:13:47;;;;;;;1.40;0.30;;;22.60;35.80;;;;;;5031450;28;20744;-72
2021/05/07 06:16:13;;;;;;;1.55;0.47;;;22.60;35.80;;;;;;5031655;28;20395;-70
2021/05/07 06:18:39;;;;;;;1.00;0.40;;;22.60;35.90;;;;;;5031061;28;20809;-72
2021/05/07 06:21:05;;;;;;;1.70;0.40;;;22.60;35.80;;;;;;5031607;28;20391;-73
2021/05/07 06:23:30;;;;;;;1.40;0.40;;;22.60;35.80;;;;;;5031810;28;20444;-72
2021/05/07 06:25:56;;;;;;;2.00;0.50;;;22.60;35.80;;;;;;5031563;28;20486;-72
2021/05/07 06:28:22;;;;;;;1.98;0.57;;;22.60;35.80;;;;;;5030980;28;20457;-72
2021/05/07 06:30:47;;;;;;;2.03;0.60;;;22.60;35.70;;;;;;5031464;28;20932;-73
2021/05/07 06:33:13;;;;;;;1.13;0.57;;;22.60;35.70;;;;;;5031578;28;20386;-73
2021/05/07 06:35:39;;;;;;;1.00;0.50;;;22.60;35.70;;;;;;5031309;28;20777;-73
2021/05/07 06:38:09;;;;;;;1.40;0.60;;;22.60;35.70;;;;;;5031707;28;20387;-73
2021/05/07 06:40:35;;;;;;;1.17;0.55;;;22.60;35.70;;;;;;5030793;28;20474;-73
2021/05/07 06:43:01;;;;;;;1.15;0.57;;;22.60;35.60;;;;;;5031633;28;20408;-73
2021/05/07 06:45:27;;;;;;;1.00;0.40;;;22.60;35.60;;;;;;5031399;28;20399;-72
2021/05/07 06:47:52;;;;;;;1.40;0.60;;;22.60;35.70;;;;;;5031325;28;20387;-72
2021/05/07 06:50:18;;;;;;;1.40;0.40;;;22.60;35.70;;;;;;5031034;28;20399;-72
2021/05/07 06:52:44;;;;;;;2.05;0.60;;;22.60;35.70;;;;;;5031016;28;20871;-73
2021/05/07 06:55:12;;;;;;;1.60;0.60;;;22.60;35.60;;;;;;5031218;28;20423;-72
2021/05/07 06:57:38;;;;;;;1.17;0.40;;;22.60;35.60;;;;;;5031216;28;20476;-72
2021/05/07 07:00:07;;;;;;;1.10;0.57;;;22.60;35.70;;;;;;5031187;28;20933;-73
2021/05/07 07:02:33;;;;;;;1.67;0.40;;;22.60;35.60;;;;;;5030597;28;20430;-73
2021/05/07 07:04:58;;;;;;;1.50;0.50;;;22.60;35.70;;;;;;5031349;28;20399;-73
2021/05/07 07:07:26;;;;;;;1.70;0.52;;;22.60;35.70;;;;;;5030845;28;20747;-73
2021/05/07 07:09:52;;;;;;;1.70;0.50;;;22.60;35.60;;;;;;5031145;28;20399;-73
2021/05/07 07:12:18;;;;;;;1.60;0.50;;;22.60;35.70;;;;;;5030831;28;20806;-66
2021/05/07 07:14:44;;;;;;;0.98;0.50;;;22.60;35.70;;;;;;5030700;28;20453;-73
2021/05/07 07:17:09;;;;;;;1.27;0.50;;;22.60;35.70;;;;;;5034325;28;20390;-73
2021/05/07 07:19:35;;;;;;;0.90;0.47;;;22.60;35.60;;;;;;5034734;28;20402;-73
2021/05/07 07:22:05;;;;;;;1.17;0.40;;;22.60;35.60;;;;;;5034771;28;20391;-71
2021/05/07 07:24:31;;;;;;;1.00;0.60;;;22.60;35.60;;;;;;5034208;28;20470;-73
2021/05/07 07:26:57;;;;;;;1.30;0.50;;;22.60;35.60;;;;;;5034662;28;20486;-73
2021/05/07 07:29:23;;;;;;;1.70;0.40;;;22.60;35.60;;;;;;5034603;28;20390;-70
2021/05/07 07:31:50;;;;;;;1.73;0.40;;;22.60;35.60;;;;;;5034597;28;20934;-71
2021/05/07 07:34:16;;;;;;;0.90;0.38;;;22.60;35.60;;;;;;5034479;28;20802;-72
2021/05/07 07:36:42;;;;;;;1.55;0.50;;;22.60;35.60;;;;;;5033888;28;20394;-72
2021/05/07 07:39:07;;;;;;;0.93;0.40;;;22.60;35.60;;;;;;5034478;28;20403;-73
2021/05/07 07:41:33;;;;;;;1.05;0.40;;;22.60;35.60;;;;;;5034402;28;20391;-72
2021/05/07 07:43:59;;;;;;;0.80;0.37;;;22.60;35.60;;;;;;5034403;28;20403;-71
2021/05/07 07:46:25;;;;;;;1.00;0.47;;;22.60;35.50;;;;;;5034029;28;20390;-71
2021/05/07 07:48:52;;;;;;;1.15;0.40;;;22.60;35.60;;;;;;5034295;28;20423;-69
2021/05/07 07:51:17;;;;;;;1.33;0.55;;;22.60;35.60;;;;;;5034217;28;20429;-69
2021/05/07 07:53:43;;;;;;;1.80;0.50;;;22.60;35.60;;;;;;5034065;28;20395;-72
2021/05/07 07:56:08;;;;;;;0.97;0.30;;;22.60;35.60;;;;;;5034138;28;20476;-72
2021/05/07 07:58:34;;;;;;;1.50;0.50;;;22.70;35.60;;;;;;5033626;28;20383;-72
2021/05/07 08:01:00;;;;;;;1.23;0.40;;;22.60;35.50;;;;;;5034087;28;20391;-72
2021/05/07 08:03:25;;;;;;;1.00;0.40;;;22.60;35.60;;;;;;5034072;28;20728;-72
2021/05/07 08:05:51;;;;;;;1.30;0.37;;;22.60;35.60;;;;;;5033988;28;20391;-72
2021/05/07 08:08:17;;;;;;;1.05;0.50;;;22.60;35.60;;;;;;5033958;28;20410;-73
2021/05/07 08:10:42;;;;;;;2.00;0.50;;;22.60;35.50;;;;;;5033421;28;20395;-74
2021/05/07 08:13:08;;;;;;;1.13;0.40;;;22.60;35.50;;;;;;5033530;28;20411;-71
2021/05/07 08:15:34;;;;;;;1.20;0.40;;;22.70;35.60;;;;;;5033713;28;20414;-73
2021/05/07 08:17:59;;;;;;;1.60;0.50;;;22.70;35.60;;;;;;5033763;28;20398;-73
2021/05/07 08:20:26;;;;;;;0.80;0.20;;;22.70;35.60;;;;;;5033546;28;20391;-72
2021/05/07 08:22:52;;;;;;;0.60;0.30;;;22.70;35.60;;;;;;5033487;28;20391;-72
2021/05/07 08:25:20;;;;;;;1.40;0.30;;;22.70;35.50;;;;;;5033578;28;20521;-71
2021/05/07 08:27:45;;;;;;;1.38;0.30;;;22.70;35.50;;;;;;5032695;28;20817;-73
2021/05/07 08:30:12;;;;;;;0.85;0.30;;;22.70;35.50;;;;;;5033633;28;20486;-72
2021/05/07 08:32:38;;;;;;;1.00;0.40;;;22.70;35.50;;;;;;5032971;28;20551;-72
2021/05/07 08:35:04;;;;;;;1.50;0.30;;;22.70;35.50;;;;;;5033417;28;20925;-73
2021/05/07 08:37:30;;;;;;;0.95;0.30;;;22.70;35.50;;;;;;5033304;28;20398;-72
2021/05/07 08:39:56;;;;;;;1.10;0.40;;;22.70;35.50;;;;;;5033221;28;20386;-73
2021/05/07 08:42:22;;;;;;;1.08;0.40;;;22.70;35.50;;;;;;5033256;28;20390;-72
2021/05/07 08:44:49;;;;;;;0.68;0.30;;;22.70;35.40;;;;;;5032783;28;20399;-73
2021/05/07 08:47:19;;;;;;;0.75;0.30;;;22.70;35.50;;;;;;5033276;28;20747;-73
2021/05/07 08:49:49;;;;;;;1.63;0.40;;;22.70;35.60;;;;;;5033151;28;20962;-73
2021/05/07 08:52:19;;;;;;;1.98;0.40;;;22.70;35.50;;;;;;5033101;28;20871;-73
2021/05/07 08:54:45;;;;;;;2.58;0.40;;;22.60;36.50;;;;;;5032606;28;20431;-73
2021/05/07 08:57:12;;;;;;;2.30;0.50;;;22.70;35.80;;;;;;5033085;28;20375;-72
2021/05/07 08:59:37;;;;;;;3.40;0.30;;;22.70;35.90;;;;;;5032948;28;20768;-73
2021/05/07 09:02:03;;;;;;;1.40;0.35;;;22.70;36.00;;;;;;5032875;28;20387;-73
2021/05/07 09:04:29;;;;;;;6.43;0.70;;;22.70;35.70;;;;;;5014875;28;20475;-73
2021/05/07 09:06:55;;;;;;;4.72;0.60;;;22.70;35.80;;;;;;5014844;28;20427;-73
2021/05/07 09:09:26;;;;;;;4.72;0.70;;;22.80;35.80;;;;;;5032698;28;20391;-72
2021/05/07 09:11:52;;;;;;;2.75;0.68;;;22.70;35.80;;;;;;5032725;28;20461;-72
2021/05/07 09:14:19;;;;;;;4.97;0.60;;;22.70;35.70;;;;;;5032012;28;20472;-72
2021/05/07 09:17:03;;;;;;;4.60;0.70;;;22.70;35.90;;;;;;5032256;28;20391;-73
2021/05/07 09:19:30;;;;;;;1.73;0.43;;;22.70;36.00;;;;;;5031484;28;20716;-62
2021/05/07 09:21:58;;;;;;;2.70;0.50;;;22.70;35.80;;;;;;5032429;28;20398;-73
2021/05/07 09:24:31;;;;;;;3.45;0.52;;;22.80;35.80;;;;;;5032152;28;20383;-69
2021/05/07 09:26:57;;;;;;;2.92;0.60;;;22.70;35.90;;;;;;5032330;28;20794;-71
2021/05/07 09:29:27;;;;;;;2.40;0.50;;;22.70;35.80;;;;;;5032132;28;20462;-72
2021/05/07 09:31:54;;;;;;;2.60;0.50;;;22.70;35.80;;;;;;5032367;28;20370;-70
2021/05/07 09:34:22;;;;;;;1.88;0.45;;;22.70;35.70;;;;;;5032150;28;20414;-71
2021/05/07 09:36:48;;;;;;;1.67;0.38;;;22.70;35.60;;;;;;5031734;28;20875;-73
2021/05/07 09:39:21;;;;;;;2.20;0.50;;;22.70;35.80;;;;;;5032174;28;20395;-69
2021/05/07 09:41:52;;;;;;;2.05;0.50;;;22.70;35.60;;;;;;5032291;28;20391;-69
2021/05/07 09:44:23;;;;;;;3.72;0.60;;;22.70;35.60;;;;;;5032012;28;20437;-71
2021/05/07 09:46:50;;;;;;;3.03;0.68;;;22.60;35.60;;;;;;5031586;28;20436;-72
2021/05/07 09:49:27;;;;;;;6.28;1.33;;;22.60;35.60;;;;;;5014179;28;20391;-71
2021/05/07 09:51:53;;;;;;;2.88;1.00;;;22.50;35.80;;;;;;5031997;28;20413;-72
2021/05/07 09:54:19;;;;;;;5.43;1.52;;;22.60;35.90;;;;;;5031773;28;20775;-71
2021/05/07 09:56:45;;;;;;;2.90;0.90;;;22.70;36.20;;;;;;5031491;28;20433;-73
2021/05/07 09:59:12;;;;;;;2.90;0.80;;;22.70;37.20;;;;;;5031688;28;20961;-68
2021/05/07 10:01:38;;;;;;;1.73;0.70;;;22.70;37.50;;;;;;5013955;28;20410;-73
2021/05/07 10:04:04;;;;;;;2.77;0.80;;;22.70;37.50;;;;;;5031313;28;20387;-73
2021/05/07 10:06:32;;;;;;;3.08;0.90;;;22.70;37.40;;;;;;5031415;28;20391;-73
2021/05/07 10:08:58;;;;;;;3.87;0.90;;;22.60;37.50;;;;;;5031622;28;20478;-73
2021/05/07 10:11:24;;;;;;;4.50;0.90;;;22.60;37.30;;;;;;5031643;28;20849;-74
2021/05/07 10:13:52;;;;;;;3.42;0.80;;;22.60;36.60;;;;;;5031366;28;20423;-73
2021/05/07 10:16:28;;;;;;;4.03;0.80;;;22.60;37.10;;;;;;5031566;28;20395;-73
2021/05/07 10:19:02;;;;;;;2.50;0.90;;;22.60;36.70;;;;;;5031646;28;21008;-77
2021/05/07 10:21:38;;;;;;;2.58;0.77;;;22.60;36.70;;;;;;5031646;28;20391;-77
2021/05/07 10:24:06;;;;;;;3.60;0.90;;;22.60;36.80;;;;;;5031630;28;20391;-77
2021/05/07 10:26:46;;;;;;;3.80;0.75;;;22.60;36.80;;;;;;5031354;28;20391;-78
2021/05/07 10:29:26;;;;;;;3.47;0.80;;;22.50;36.90;;;;;;5031723;28;20390;-78
2021/05/07 10:31:56;;;;;;;4.97;0.80;;;22.50;37.00;;;;;;5031743;28;20387;-78
2021/05/07 10:34:25;;;;;;;8.18;1.00;;;22.50;36.90;;;;;;5031273;28;20411;-76
2021/05/07 10:36:53;;;;;;;6.00;0.90;;;22.50;37.10;;;;;;5031004;28;20403;-77
2021/05/07 10:39:28;;;;;;;3.83;0.80;;;22.50;37.10;;;;;;5031296;28;20940;-78
2021/05/07 10:41:58;;;;;;;4.80;0.80;;;22.50;37.40;;;;;;5031266;28;20454;-77
2021/05/07 10:44:26;;;;;;;3.67;0.80;;;22.60;37.20;;;;;;5031516;28;20874;-78
2021/05/07 10:47:10;;;;;;;3.87;0.63;;;22.60;37.10;;;;;;5030989;28;20517;-78
2021/05/07 10:49:40;;;;;;;5.13;0.80;;;22.70;37.00;;;;;;5031700;28;20394;-78
2021/05/07 10:52:08;;;;;;;3.70;0.60;;;22.70;36.90;;;;;;5034896;28;20391;-78
2021/05/07 10:54:46;;;;;;;3.08;0.60;;;22.80;36.80;;;;;;5035295;28;21073;-78
2021/05/07 10:57:28;;;;;;;1.58;0.50;;;22.80;36.70;;;;;;5035638;28;20405;-78
2021/05/07 11:00:04;;;;;;;3.13;0.60;;;22.90;36.60;;;;;;5035512;28;20422;-79
2021/05/07 11:02:47;;;;;;;2.88;0.70;;;22.80;36.60;;;;;;5035435;28;20390;-78
2021/05/07 11:05:34;;;;;;;2.45;0.60;;;22.90;37.40;;;;;;5035407;28;20395;-76
2021/05/07 11:07:59;;;;;;;4.35;0.60;;;22.80;36.90;;;;;;5035373;28;20394;-78
2021/05/07 11:10:28;;;;;;;4.63;0.83;;;22.80;37.60;;;;;;5017828;28;20399;-78
2021/05/07 11:12:54;;;;;;;5.07;0.80;;;22.70;37.90;;;;;;5034665;28;20930;-78
2021/05/07 11:15:21;;;;;;;5.57;1.20;;;22.70;38.20;;;;;;5017558;28;20427;-79
2021/05/07 11:17:58;;;;;;;4.63;1.20;;;22.80;38.40;;;;;;5037033;28;20415;-79
2021/05/07 11:20:35;;;;;;;6.97;1.30;;;22.80;38.50;;;;;;5035053;28;20478;-78
2021/05/07 11:23:04;;;;;;;4.10;1.00;;;22.90;38.50;;;;;;5034735;28;20387;-77
2021/05/07 11:25:31;;;;;;;5.70;1.02;;;22.90;38.30;;;;;;5017461;28;20913;-77
2021/05/07 11:28:07;;;;;;;7.50;1.70;;;22.90;38.80;;;;;;5034854;28;20724;-78
2021/05/07 11:30:53;;;;;;;4.90;1.17;;;22.90;39.00;;;;;;5034784;28;20732;-78
2021/05/07 11:33:21;;;;;;;7.50;1.40;;;23.00;38.60;;;;;;5034780;28;20391;-78
2021/05/07 11:35:47;;;;;;;7.22;1.60;;;23.00;38.70;;;;;;5034882;28;20498;-78
2021/05/07 11:38:13;;;;;;;6.47;1.30;;;23.00;38.90;;;;;;5034718;28;20384;-70
2021/05/07 11:40:41;;;;;;;7.28;1.42;;;23.00;38.80;;;;;;5017747;28;20394;-79
2021/05/07 11:43:12;;;;;;;6.57;1.67;;;23.10;38.70;;;;;;5034549;28;20391;-79
2021/05/07 11:45:38;;;;;;;6.63;1.60;;;23.10;38.80;;;;;;5034543;28;20399;-79
2021/05/07 11:48:11;;;;;;;4.78;1.50;;;23.10;39.00;;;;;;5034599;28;20473;-79
2021/05/07 11:50:38;;;;;;;8.57;1.60;;;23.10;38.90;;;;;;5034149;28;20444;-78
2021/05/07 11:53:04;;;;;;;7.82;1.80;;;23.20;38.70;;;;;;5035809;28;20720;-79
2021/05/07 11:55:35;;;;;;;8.80;1.73;;;23.10;39.20;;;;;;5054470;28;20413;-79
2021/05/07 11:58:06;;;;;;;8.30;1.70;;;23.10;38.90;;;;;;5054397;28;20393;-79
2021/05/07 12:00:35;;;;;;;6.97;1.30;;;23.30;38.80;;;;;;5054232;28;20390;-79
2021/05/07 12:03:16;;;;;;;7.33;1.50;;;23.40;39.60;;;;;;5052572;28;20394;-79
2021/05/07 12:05:44;;;;;;;6.32;1.48;;;23.50;40.70;;;;;;5054038;28;20468;-79
2021/05/07 12:08:10;;;;;;;6.90;1.58;;;23.50;40.10;;;;;;5055245;28;20417;-79
2021/05/07 12:10:44;;;;;;;7.27;1.57;;;23.40;40.20;;;;;;5031347;28;20398;-64
2021/05/07 12:13:21;;;;;;;7.78;1.80;;;23.40;40.00;;;;;;5015034;28;20490;-63
2021/05/07 12:15:51;;;;;;;8.18;1.23;;;23.30;40.50;;;;;;5014028;28;20470;-62
2021/05/07 12:18:22;;;;;;;5.20;1.30;;;23.20;40.40;;;;;;5013842;28;20511;-74
2021/05/07 12:20:57;;;;;;;5.27;1.20;;;23.20;40.30;;;;;;5013479;28;20861;-73
2021/05/07 12:23:24;;;;;;;4.57;1.20;;;23.20;40.00;;;;;;5013659;28;20388;-75
2021/05/07 12:25:50;;;;;;;4.97;1.10;;;23.20;40.00;;;;;;4996357;28;20420;-76
2021/05/07 12:28:18;;;;;;;5.82;1.30;;;23.10;40.00;;;;;;5013903;28;20462;-66
2021/05/07 12:30:46;;;;;;;3.47;1.00;;;23.10;39.80;;;;;;5027318;28;20398;-74
2021/05/07 12:33:21;;;;;;;5.68;1.20;;;23.10;39.80;;;;;;5033938;28;20490;-77
2021/05/07 12:35:51;;;;;;;4.30;1.17;;;23.10;39.60;;;;;;5015211;28;20878;-76
2021/05/07 12:40:49;;;;;;;3.63;1.20;;;23.00;39.40;;;;;;5032799;28;20376;-77
2021/05/07 12:43:15;;;;;;;4.35;1.23;;;23.00;39.30;;;;;;5033536;28;20885;-75
2021/05/07 12:45:46;;;;;;;3.17;1.17;;;23.00;39.30;;;;;;5033385;28;20466;-75
2021/05/07 12:48:12;;;;;;;4.18;1.20;;;23.00;39.20;;;;;;5033448;28;20866;-77
2021/05/07 12:50:38;;;;;;;3.55;1.10;;;23.00;39.30;;;;;;5033282;28;20387;-76
2021/05/07 12:53:15;;;;;;;3.60;1.40;;;23.00;39.20;;;;;;5033014;28;20398;-76
2021/05/07 12:55:41;;;;;;;2.80;1.00;;;22.90;39.10;;;;;;5032921;28;20415;-76